Terminal Aerodrome Forecast
Issued by NWS Austin/San Antonio, TX

Home | Current Version | Previous Version | Text Only | Print | Product List | Glossary On
Versions: 1 2 3 4 5 6 7 8 9 10 11 12 13 14 15 16 17 18 19 20 21 22 23
000
FTUS44 KEWX 201700 RRA
TAFAUS
TAF
KAUS 201743Z 2018/2124 02007KT P6SM OVC020
     FM210600 05003KT P6SM OVC015
     FM211100 VRB02KT 4SM BR OVC007
     FM211500 10003KT P6SM OVC015
     FM211800 18006KT P6SM BKN025
     FM212000 18006KT P6SM SCT040 SCT250=

USA.gov is the U.S. government's official web portal to all federal, state and local government web resources and services.